Time;durP1;ratioP1;P1;durP2;ratioP2;P2;SDS_P1;SDS_P2;PMS_P1;PMS_P2;Temp;Humidity;BMP_temperature;BMP_pressure;BME280_temperature;BME280_humidity;BME280_pressure;Samples;Min_cycle;Max_cycle;Signal;HPM_P1;HPM_P2
2021/06/21 07:05:59;;;;;;;4.03;1.60;;;;;;;;;;12946373;23;20012;-86
2021/06/21 07:11:00;;;;;;;3.50;2.10;;;;;;;;;;12957690;23;20012;-81
2021/06/21 07:16:01;;;;;;;5.40;4.30;;;;;;;;;;12955346;23;20075;-80
2021/06/21 07:21:02;;;;;;;4.60;3.33;;;;;;;;;;12955502;23;20005;-81
2021/06/21 07:26:05;;;;;;;2.05;1.70;;;;;;;;;;12957972;23;20015;-81
2021/06/21 07:31:07;;;;;;;4.57;1.95;;;;;;;;;;12958642;23;20175;-81
2021/06/21 07:36:08;;;;;;;1.98;1.80;;;;;;;;;;12957588;23;20433;-82
2021/06/21 07:41:10;;;;;;;2.85;2.60;;;;;;;;;;12959419;23;20063;-82
2021/06/21 07:46:11;;;;;;;2.88;1.70;;;;;;;;;;12959521;23;20008;-82
2021/06/21 07:51:14;;;;;;;3.03;1.98;;;;;;;;;;12958991;23;20012;-85
2021/06/21 07:56:15;;;;;;;2.13;1.92;;;;;;;;;;12961002;23;20010;-82
2021/06/21 08:01:17;;;;;;;5.60;3.80;;;;;;;;;;12954910;23;20012;-80
2021/06/21 08:06:17;;;;;;;3.92;3.38;;;;;;;;;;12955304;22;20008;-83
2021/06/21 08:11:18;;;;;;;3.65;3.03;;;;;;;;;;12951774;23;20067;-82
2021/06/21 08:16:19;;;;;;;4.68;3.20;;;;;;;;;;12950638;22;19996;-82
2021/06/21 08:21:20;;;;;;;4.97;3.75;;;;;;;;;;12946230;23;20004;-85
2021/06/21 08:26:21;;;;;;;4.82;2.78;;;;;;;;;;12944894;22;20055;-85
2021/06/21 09:22:54;;;;;;;4.18;2.50;;;;;;;;;;12946810;22;20022;-85
2021/06/21 09:28:00;;;;;;;2.67;1.60;;;;;;;;;;12943872;22;20032;-84
2021/06/21 09:33:01;;;;;;;2.33;1.80;;;;;;;;;;12949423;23;20087;-85
2021/06/21 09:38:04;;;;;;;2.92;2.55;;;;;;;;;;12945772;22;20435;-83
2021/06/21 09:43:28;;;;;;;3.55;3.25;;;;;;;;;;12939271;23;20007;-82
2021/06/21 09:48:40;;;;;;;4.65;3.10;;;;;;;;;;12898057;22;20099;-85
2021/06/21 09:53:41;;;;;;;3.72;2.15;;;;;;;;;;12936105;23;20000;-86
2021/06/21 09:58:42;;;;;;;5.50;3.70;;;;;;;;;;12932916;22;20000;-86
2021/06/21 10:03:44;;;;;;;4.65;4.25;;;;;;;;;;12934211;23;19996;-85
2021/06/21 10:08:46;;;;;;;3.45;2.00;;;;;;;;;;12933853;22;20027;-85
2021/06/21 10:13:47;;;;;;;4.47;1.90;;;;;;;;;;12945237;22;20079;-85
2021/06/21 10:18:48;;;;;;;5.80;5.30;;;;;;;;;;12937985;22;20011;-84
2021/06/21 10:23:50;;;;;;;5.53;2.78;;;;;;;;;;12939073;23;20104;-84
2021/06/21 10:29:03;;;;;;;5.25;4.75;;;;;;;;;;12935686;22;20017;-85
2021/06/21 10:34:05;;;;;;;6.47;5.85;;;;;;;;;;12936760;23;20387;-85
2021/06/21 10:39:07;;;;;;;4.50;3.95;;;;;;;;;;12940211;22;20004;-87
2021/06/21 10:44:29;;;;;;;2.70;2.13;;;;;;;;;;12941389;23;20005;-84
2021/06/21 10:49:31;;;;;;;1.60;1.50;;;;;;;;;;12944350;23;20000;-86
2021/06/21 10:54:31;;;;;;;3.33;1.27;;;;;;;;;;12942099;23;20004;-85
2021/06/21 10:59:32;;;;;;;1.05;1.00;;;;;;;;;;12940736;23;20058;-86
2021/06/21 11:04:34;;;;;;;1.17;0.90;;;;;;;;;;12945201;23;20004;-85
2021/06/21 11:09:41;;;;;;;1.50;1.00;;;;;;;;;;12945389;23;20035;-86
2021/06/21 11:15:02;;;;;;;1.92;1.10;;;;;;;;;;12946092;23;20011;-86
2021/06/21 11:20:22;;;;;;;0.75;0.75;;;;;;;;;;12943305;23;20008;-85
2021/06/21 11:25:24;;;;;;;0.80;0.60;;;;;;;;;;12943565;23;20040;-86
2021/06/21 11:30:27;;;;;;;1.95;0.90;;;;;;;;;;12946300;22;20011;-86
2021/06/21 11:35:47;;;;;;;1.55;0.60;;;;;;;;;;12941508;23;19996;-86
2021/06/21 11:40:48;;;;;;;0.57;0.50;;;;;;;;;;12942695;23;20059;-86
2021/06/21 11:45:52;;;;;;;0.50;0.50;;;;;;;;;;12959974;23;20020;-87
2021/06/21 11:50:54;;;;;;;0.30;0.30;;;;;;;;;;12958943;23;20018;-86
2021/06/21 11:55:55;;;;;;;0.68;0.60;;;;;;;;;;12969292;23;20012;-86
2021/06/21 12:00:57;;;;;;;1.25;0.40;;;;;;;;;;12952524;23;20011;-86
2021/06/21 12:05:58;;;;;;;1.48;0.60;;;;;;;;;;12944011;23;20032;-86
2021/06/21 12:11:10;;;;;;;1.05;0.68;;;;;;;;;;12943224;23;20008;-86
2021/06/21 12:16:15;;;;;;;1.20;0.40;;;;;;;;;;12944936;23;20031;-86
2021/06/21 12:21:27;;;;;;;0.90;0.77;;;;;;;;;;12953348;23;20093;-84
2021/06/21 12:26:36;;;;;;;1.95;0.88;;;;;;;;;;12966164;22;20004;-86
2021/06/21 12:31:37;;;;;;;0.88;0.47;;;;;;;;;;12948812;23;20005;-86
2021/06/21 12:36:38;;;;;;;0.50;0.40;;;;;;;;;;12943251;22;20004;-85
2021/06/21 12:41:39;;;;;;;0.63;0.60;;;;;;;;;;12941554;23;20380;-87
2021/06/21 12:46:42;;;;;;;2.70;0.50;;;;;;;;;;12937860;22;19996;-87
2021/06/21 12:51:44;;;;;;;1.45;0.40;;;;;;;;;;12939275;23;20029;-86
2021/06/21 12:56:49;;;;;;;0.82;0.63;;;;;;;;;;12938258;22;20004;-87
2021/06/21 13:01:50;;;;;;;0.80;0.47;;;;;;;;;;12939156;23;20023;-86
2021/06/21 13:07:17;;;;;;;0.47;0.32;;;;;;;;;;12942519;22;20350;-85
2021/06/21 13:12:29;;;;;;;0.20;0.20;;;;;;;;;;12917261;23;20074;-86
2021/06/21 13:17:30;;;;;;;0.70;0.60;;;;;;;;;;12945012;22;20007;-86
2021/06/21 13:22:36;;;;;;;1.42;0.73;;;;;;;;;;12941684;23;20007;-84
2021/06/21 13:27:37;;;;;;;0.70;0.40;;;;;;;;;;12942081;22;20023;-85
2021/06/21 13:32:38;;;;;;;5.00;0.60;;;;;;;;;;12940205;23;20014;-84
2021/06/21 13:37:39;;;;;;;1.95;0.40;;;;;;;;;;12932473;22;20459;-84
2021/06/21 13:42:51;;;;;;;2.70;0.40;;;;;;;;;;12934500;23;20000;-86
2021/06/21 13:47:55;;;;;;;1.00;0.57;;;;;;;;;;12942344;22;20001;-86
2021/06/21 13:52:56;;;;;;;0.60;0.60;;;;;;;;;;12943855;23;20013;-85
2021/06/21 13:57:58;;;;;;;1.25;0.47;;;;;;;;;;12948036;22;20000;-84
2021/06/21 14:03:02;;;;;;;2.08;0.50;;;;;;;;;;12947662;23;20424;-86
2021/06/21 14:08:03;;;;;;;1.48;0.50;;;;;;;;;;12941713;22;20134;-85
2021/06/21 14:13:04;;;;;;;3.33;0.70;;;;;;;;;;12943436;23;20008;-86
2021/06/21 14:18:05;;;;;;;1.48;0.85;;;;;;;;;;12945776;22;20086;-86
2021/06/21 14:23:10;;;;;;;2.17;0.63;;;;;;;;;;12948010;23;20000;-85
2021/06/21 14:28:11;;;;;;;0.40;0.40;;;;;;;;;;12947264;22;20055;-85
2021/06/21 14:33:12;;;;;;;1.23;1.13;;;;;;;;;;12959817;23;20024;-84
2021/06/21 14:38:13;;;;;;;1.25;0.70;;;;;;;;;;12969481;22;20014;-84
2021/06/21 14:43:15;;;;;;;1.38;0.95;;;;;;;;;;12963742;23;20294;-84
2021/06/21 14:48:17;;;;;;;0.70;0.50;;;;;;;;;;12945549;22;19996;-82
2021/06/21 14:53:18;;;;;;;0.63;0.45;;;;;;;;;;12942983;23;20008;-85
2021/06/21 14:58:19;;;;;;;0.85;0.50;;;;;;;;;;12946832;22;20003;-84
2021/06/21 15:03:20;;;;;;;1.75;0.80;;;;;;;;;;12944926;23;20007;-84
2021/06/21 15:08:23;;;;;;;1.17;0.70;;;;;;;;;;12945985;22;20095;-86
2021/06/21 15:13:24;;;;;;;1.20;0.70;;;;;;;;;;12944126;23;20007;-85
2021/06/21 15:18:25;;;;;;;1.85;0.60;;;;;;;;;;12942434;22;20007;-83
2021/06/21 15:23:25;;;;;;;1.38;0.60;;;;;;;;;;12944721;23;20050;-83
2021/06/21 15:28:27;;;;;;;2.33;0.77;;;;;;;;;;12938562;22;20031;-83
2021/06/21 15:33:28;;;;;;;1.38;1.25;;;;;;;;;;13068717;22;20015;-84
2021/06/21 15:38:29;;;;;;;1.48;0.80;;;;;;;;;;13065191;22;20006;-84
2021/06/21 15:43:36;;;;;;;2.13;0.80;;;;;;;;;;13024693;22;20004;-84
2021/06/21 15:48:39;;;;;;;3.22;0.88;;;;;;;;;;13021953;22;19996;-83
2021/06/21 15:53:41;;;;;;;1.85;1.65;;;;;;;;;;13021485;22;20030;-83
2021/06/21 15:58:42;;;;;;;0.77;0.70;;;;;;;;;;13022207;22;20078;-83
2021/06/21 16:03:45;;;;;;;1.75;0.60;;;;;;;;;;13021495;22;20347;-83
2021/06/21 16:08:46;;;;;;;0.65;0.55;;;;;;;;;;13020327;22;19995;-85
2021/06/21 16:13:47;;;;;;;1.08;0.70;;;;;;;;;;13016922;22;20011;-84
2021/06/21 16:18:51;;;;;;;0.68;0.60;;;;;;;;;;13028213;22;20000;-88
2021/06/21 16:23:52;;;;;;;0.60;0.50;;;;;;;;;;13024978;22;20000;-88
2021/06/21 16:28:53;;;;;;;1.02;0.93;;;;;;;;;;13020605;22;20008;-91
2021/06/21 16:33:54;;;;;;;1.83;1.65;;;;;;;;;;13027509;22;20004;-92
2021/06/21 16:39:18;;;;;;;1.90;1.80;;;;;;;;;;13027644;22;20022;-92
2021/06/21 16:44:35;;;;;;;;;;;;;;;;;;;;;
2021/06/21 16:50:22;;;;;;;1.65;1.10;;;;;;;;;;13031839;22;20030;-91
2021/06/21 16:55:28;;;;;;;1.65;1.20;;;;;;;;;;12948757;22;20012;-90
2021/06/21 17:06:15;;;;;;;1.30;1.20;;;;;;;;;;12961420;22;20047;-92
2021/06/21 17:17:16;;;;;;;;;;;;;;;;;;;;;
2021/06/21 17:22:17;;;;;;;0.60;0.60;;;;;;;;;;13045459;22;20007;-90
2021/06/21 17:27:31;;;;;;;1.23;1.00;;;;;;;;;;13046464;22;19995;-88
2021/06/21 17:33:34;;;;;;;0.88;0.88;;;;;;;;;;13045669;22;20073;-87
2021/06/21 17:38:21;;;;;;;1.02;0.60;;;;;;;;;;13010949;22;20015;-93
2021/06/21 17:43:25;;;;;;;0.80;0.77;;;;;;;;;;13043516;22;19984;-92
2021/06/21 17:48:50;;;;;;;;;;;;;;;;;;;;;
2021/06/21 17:54:00;;;;;;;0.70;0.55;;;;;;;;;;13040868;22;20016;-93
2021/06/21 17:59:19;;;;;;;;;;;;;;;;;;;;;
2021/06/21 18:04:49;;;;;;;0.60;0.60;;;;;;;;;;13028437;22;20019;-93
2021/06/21 18:10:09;;;;;;;1.00;0.88;;;;;;;;;;12988596;22;20698;-93
2021/06/21 18:15:49;;;;;;;;;;;;;;;;;;;;;
